createdAt,value
2019-03-29T00:01:01.300Z,3.40
2019-03-29T00:03:06.919Z,3.30
2019-03-29T00:05:12.522Z,3.10
2019-03-29T00:07:19.029Z,3.00
2019-03-29T00:09:24.563Z,3.00
2019-03-29T00:11:30.096Z,3.10
2019-03-29T00:13:35.636Z,3.00
2019-03-29T00:15:41.280Z,2.90
2019-03-29T00:17:46.808Z,2.90
2019-03-29T00:19:52.333Z,3.10
2019-03-29T00:21:57.873Z,3.10
2019-03-29T00:24:07.129Z,2.90
2019-03-29T00:26:11.640Z,2.80
2019-03-29T00:28:17.171Z,2.70
2019-03-29T00:30:23.568Z,2.60
2019-03-29T00:32:29.100Z,2.80
2019-03-29T00:34:34.661Z,2.70
2019-03-29T00:36:40.195Z,2.60
2019-03-29T00:38:45.715Z,2.50
2019-03-29T00:40:52.373Z,2.50
2019-03-29T00:42:57.912Z,2.80
2019-03-29T00:45:04.896Z,2.80
2019-03-29T00:47:10.435Z,2.80
2019-03-29T00:49:15.981Z,2.60
2019-03-29T00:51:21.518Z,2.60
2019-03-29T00:53:27.051Z,2.60
2019-03-29T00:55:32.572Z,2.50
2019-03-29T00:57:38.116Z,2.60
2019-03-29T00:59:43.669Z,2.60
2019-03-29T01:01:49.187Z,2.50
2019-03-29T01:03:54.812Z,2.50
2019-03-29T01:06:00.427Z,2.40
2019-03-29T01:08:08.019Z,2.40
2019-03-29T01:10:13.365Z,2.40
2019-03-29T01:12:18.929Z,2.40
2019-03-29T01:14:24.447Z,2.30
2019-03-29T01:16:30.451Z,2.20
2019-03-29T01:18:36.010Z,2.10
2019-03-29T01:20:41.537Z,2.20
2019-03-29T01:22:47.130Z,2.10
2019-03-29T01:24:52.691Z,2.10
2019-03-29T01:26:58.217Z,2.10
2019-03-29T01:29:03.982Z,2.00
2019-03-29T01:31:10.475Z,2.00
2019-03-29T01:33:16.101Z,2.10
2019-03-29T01:35:21.752Z,2.20
2019-03-29T01:37:30.497Z,2.10
2019-03-29T01:39:36.151Z,2.00
2019-03-29T01:41:41.753Z,1.90
2019-03-29T01:43:47.425Z,1.90
2019-03-29T01:45:52.995Z,2.00
2019-03-29T01:47:58.641Z,2.00
2019-03-29T01:50:05.678Z,2.00
2019-03-29T01:52:12.255Z,2.00
2019-03-29T01:54:17.952Z,2.20
2019-03-29T01:56:23.636Z,2.40
2019-03-29T01:58:29.204Z,2.40
2019-03-29T02:00:36.268Z,2.40
2019-03-29T02:02:42.273Z,2.30
2019-03-29T02:04:47.940Z,2.30
2019-03-29T02:06:53.549Z,2.20
2019-03-29T02:08:59.299Z,2.20
2019-03-29T02:11:04.881Z,2.10
2019-03-29T02:13:10.636Z,2.00
2019-03-29T02:15:16.389Z,2.00
2019-03-29T02:17:22.042Z,1.90
2019-03-29T02:19:27.931Z,1.90
2019-03-29T02:21:33.612Z,1.80
2019-03-29T02:23:39.165Z,1.80
2019-03-29T02:25:45.020Z,1.80
2019-03-29T02:27:52.286Z,1.80
2019-03-29T02:29:58.672Z,1.80
2019-03-29T02:32:04.455Z,1.80
2019-03-29T02:34:10.077Z,2.00
2019-03-29T02:36:15.732Z,2.10
2019-03-29T02:38:23.626Z,2.20
2019-03-29T02:40:30.508Z,2.00
2019-03-29T02:42:36.077Z,2.00
2019-03-29T02:44:41.732Z,2.10
2019-03-29T02:46:47.293Z,2.00
2019-03-29T02:48:52.861Z,1.80
2019-03-29T02:50:58.546Z,1.80
2019-03-29T02:53:04.265Z,1.80
2019-03-29T02:55:09.976Z,1.80
2019-03-29T02:57:15.501Z,1.80
2019-03-29T02:59:40.404Z,1.70
2019-03-29T03:01:45.952Z,1.60
2019-03-29T03:03:51.482Z,1.60
2019-03-29T03:05:57.037Z,1.50
2019-03-29T03:08:02.584Z,1.60
2019-03-29T03:10:09.574Z,1.60
2019-03-29T03:12:15.128Z,1.60
2019-03-29T03:14:20.661Z,1.60
2019-03-29T03:16:26.184Z,1.60
2019-03-29T03:18:31.736Z,1.60
2019-03-29T03:20:37.331Z,1.50
2019-03-29T03:22:42.982Z,1.50
2019-03-29T03:24:48.550Z,1.40
2019-03-29T03:26:54.075Z,1.40
2019-03-29T03:28:59.602Z,1.40
2019-03-29T03:31:05.205Z,1.30
2019-03-29T03:33:10.724Z,1.30
2019-03-29T03:35:16.391Z,1.30
2019-03-29T03:37:21.936Z,1.20
2019-03-29T03:39:31.939Z,1.30
2019-03-29T03:41:34.618Z,1.30
2019-03-29T03:43:40.177Z,1.40
2019-03-29T03:45:45.713Z,1.50
2019-03-29T03:47:51.238Z,1.40
2019-03-29T03:50:00.635Z,1.50
2019-03-29T03:52:23.391Z,1.50
2019-03-29T03:54:29.067Z,1.50
2019-03-29T03:56:35.141Z,1.60
2019-03-29T03:58:41.613Z,1.60
2019-03-29T04:00:54.824Z,1.60
2019-03-29T04:03:01.344Z,1.70
2019-03-29T04:05:07.338Z,1.60
2019-03-29T04:07:12.857Z,1.60
2019-03-29T04:09:19.469Z,1.60
2019-03-29T04:11:25.003Z,1.60
2019-03-29T04:13:30.534Z,1.80
2019-03-29T04:15:36.072Z,2.00
2019-03-29T04:17:41.596Z,2.00
2019-03-29T04:19:47.142Z,2.00
2019-03-29T04:21:52.682Z,1.90
2019-03-29T04:23:59.274Z,1.90
2019-03-29T04:26:04.798Z,1.90
2019-03-29T04:28:10.505Z,1.90
2019-03-29T04:30:16.237Z,1.90
2019-03-29T04:32:21.765Z,1.70
2019-03-29T04:34:27.300Z,1.60
2019-03-29T04:36:32.824Z,1.70
2019-03-29T04:38:38.424Z,1.80
2019-03-29T04:40:44.033Z,1.80
2019-03-29T04:42:49.552Z,1.80
2019-03-29T04:44:55.088Z,1.80
2019-03-29T04:47:00.708Z,1.80
2019-03-29T04:49:06.796Z,1.80
2019-03-29T04:51:12.333Z,1.70
2019-03-29T04:53:17.867Z,1.70
2019-03-29T04:55:23.469Z,1.70
2019-03-29T04:57:28.991Z,1.80
2019-03-29T04:59:34.538Z,1.70
2019-03-29T05:01:59.404Z,1.70
2019-03-29T05:04:04.934Z,1.70
2019-03-29T05:06:11.016Z,1.80
2019-03-29T05:08:16.518Z,1.70
2019-03-29T05:10:22.138Z,1.70
2019-03-29T05:12:27.687Z,1.60
2019-03-29T05:14:33.233Z,1.60
2019-03-29T05:16:38.775Z,1.60
2019-03-29T05:18:44.335Z,1.60
2019-03-29T05:20:49.860Z,1.60
2019-03-29T05:22:55.404Z,1.50
2019-03-29T05:25:01.007Z,1.50
2019-03-29T05:27:06.532Z,1.50
2019-03-29T05:29:12.068Z,1.60
2019-03-29T05:31:17.638Z,1.80
2019-03-29T05:33:23.157Z,1.90
2019-03-29T05:35:28.675Z,1.90
2019-03-29T05:37:34.217Z,1.90
2019-03-29T05:39:39.737Z,2.00
2019-03-29T05:41:45.342Z,1.90
2019-03-29T05:43:50.884Z,2.00
2019-03-29T05:45:56.405Z,2.00
2019-03-29T05:48:02.014Z,2.10
2019-03-29T05:50:08.110Z,2.20
2019-03-29T05:52:13.636Z,2.30
2019-03-29T05:54:19.188Z,2.30
2019-03-29T05:56:24.739Z,2.30
2019-03-29T05:58:30.273Z,2.40
2019-03-29T06:00:35.807Z,2.40
2019-03-29T06:02:41.335Z,2.50
2019-03-29T06:04:46.870Z,2.60
2019-03-29T06:06:52.400Z,2.70
2019-03-29T06:08:57.932Z,2.80
2019-03-29T06:11:03.902Z,2.90
2019-03-29T06:13:09.495Z,3.00
2019-03-29T06:15:15.274Z,3.10
2019-03-29T06:17:20.872Z,3.20
2019-03-29T06:19:26.398Z,3.40
2019-03-29T06:21:31.934Z,3.50
2019-03-29T06:23:37.539Z,3.60
2019-03-29T06:25:43.081Z,3.70
2019-03-29T06:27:48.621Z,3.90
2019-03-29T06:29:54.148Z,4.00
2019-03-29T06:31:59.694Z,4.10
2019-03-29T06:34:05.302Z,4.30
2019-03-29T06:36:13.436Z,4.30
2019-03-29T06:38:20.392Z,4.40
2019-03-29T06:40:27.076Z,4.40
2019-03-29T06:42:32.606Z,4.40
2019-03-29T06:44:38.147Z,4.40
2019-03-29T06:46:43.702Z,4.50
2019-03-29T06:48:49.220Z,4.50
2019-03-29T06:50:54.756Z,4.50
2019-03-29T06:53:00.374Z,4.50
2019-03-29T06:55:06.442Z,4.60
2019-03-29T06:57:11.984Z,4.70
2019-03-29T06:59:17.579Z,4.80
2019-03-29T07:01:42.445Z,4.80
2019-03-29T07:03:47.960Z,4.80
2019-03-29T07:05:53.568Z,4.90
2019-03-29T07:07:59.089Z,4.90
2019-03-29T07:10:06.249Z,4.90
2019-03-29T07:12:11.878Z,4.90
2019-03-29T07:14:17.400Z,4.90
2019-03-29T07:16:22.996Z,5.00
2019-03-29T07:18:28.528Z,5.10
2019-03-29T07:20:34.059Z,5.20
2019-03-29T07:22:39.591Z,5.30
2019-03-29T07:24:45.128Z,5.40
2019-03-29T07:26:51.633Z,5.50
2019-03-29T07:28:57.170Z,5.60
2019-03-29T07:31:02.778Z,5.80
2019-03-29T07:33:08.309Z,6.00
2019-03-29T07:35:13.899Z,6.00
2019-03-29T07:37:19.452Z,6.10
2019-03-29T07:39:24.980Z,6.20
2019-03-29T07:41:32.100Z,6.30
2019-03-29T07:43:37.671Z,6.40
2019-03-29T07:45:43.203Z,6.60
2019-03-29T07:47:48.744Z,6.70
2019-03-29T07:49:54.280Z,6.90
2019-03-29T07:51:59.807Z,7.10
2019-03-29T07:54:05.406Z,7.40
2019-03-29T07:56:10.943Z,7.60
2019-03-29T07:58:16.544Z,7.80
2019-03-29T08:00:22.065Z,7.90
2019-03-29T08:02:28.947Z,8.10
2019-03-29T08:04:34.642Z,8.20
2019-03-29T08:06:40.163Z,8.40
2019-03-29T08:08:45.700Z,8.40
2019-03-29T08:10:53.804Z,8.60
2019-03-29T08:12:58.375Z,8.90
2019-03-29T08:15:09.386Z,9.30
2019-03-29T08:17:14.740Z,9.80
2019-03-29T08:19:20.420Z,10.20
2019-03-29T08:21:25.961Z,10.30
2019-03-29T08:23:31.510Z,10.50
2019-03-29T08:25:37.068Z,10.90
2019-03-29T08:27:42.688Z,11.10
2019-03-29T08:29:48.183Z,11.00
2019-03-29T08:31:55.587Z,10.90
2019-03-29T08:34:00.879Z,10.70
2019-03-29T08:36:06.490Z,10.70
2019-03-29T08:38:12.020Z,11.00
2019-03-29T08:40:17.565Z,11.50
2019-03-29T08:42:23.124Z,11.80
2019-03-29T08:44:28.674Z,12.30
2019-03-29T08:46:34.225Z,12.30
2019-03-29T08:48:59.169Z,12.30
2019-03-29T08:51:04.785Z,12.50
2019-03-29T08:53:10.333Z,12.50
2019-03-29T08:55:17.681Z,12.70
2019-03-29T08:57:23.163Z,12.50
2019-03-29T08:59:28.690Z,12.60
2019-03-29T09:01:34.534Z,12.70
2019-03-29T09:03:40.056Z,12.40
2019-03-29T09:05:45.795Z,12.10
2019-03-29T09:07:51.720Z,12.20
2019-03-29T09:09:57.320Z,12.40
2019-03-29T09:12:13.785Z,12.60
2019-03-29T09:14:10.153Z,13.10
2019-03-29T09:16:15.679Z,12.80
2019-03-29T09:18:21.275Z,12.40
2019-03-29T09:20:26.871Z,12.10
2019-03-29T09:22:32.456Z,12.30
2019-03-29T09:24:37.999Z,12.50
2019-03-29T09:26:43.552Z,12.40
2019-03-29T09:28:49.077Z,12.20
2019-03-29T09:30:56.561Z,11.90
2019-03-29T09:33:01.748Z,11.90
2019-03-29T09:35:07.523Z,11.70
2019-03-29T09:37:13.050Z,11.80
2019-03-29T09:39:18.616Z,11.90
2019-03-29T09:41:24.215Z,11.90
2019-03-29T09:43:29.737Z,11.70
2019-03-29T09:45:35.332Z,11.60
2019-03-29T09:47:41.129Z,11.40
2019-03-29T09:49:46.864Z,11.30
2019-03-29T09:51:52.422Z,11.30
2019-03-29T09:53:58.102Z,11.10
2019-03-29T09:56:03.770Z,11.20
2019-03-29T09:58:09.303Z,11.60
2019-03-29T10:00:20.947Z,11.80
2019-03-29T10:02:23.574Z,11.70
2019-03-29T10:04:29.097Z,11.70
2019-03-29T10:06:35.602Z,11.90
2019-03-29T10:08:41.122Z,12.00
2019-03-29T10:10:46.820Z,12.20
2019-03-29T10:12:52.405Z,12.10
2019-03-29T10:14:58.002Z,11.90
2019-03-29T10:17:03.633Z,11.50
2019-03-29T10:19:09.220Z,11.20
2019-03-29T10:21:17.215Z,11.20
2019-03-29T10:23:21.907Z,10.90
2019-03-29T10:25:27.505Z,10.90
2019-03-29T10:27:33.037Z,10.90
2019-03-29T10:29:38.594Z,11.10
2019-03-29T10:31:45.201Z,11.00
2019-03-29T10:33:50.794Z,11.10
2019-03-29T10:35:56.407Z,10.90
2019-03-29T10:38:02.088Z,10.90
2019-03-29T10:40:07.992Z,10.90
2019-03-29T10:42:13.581Z,11.10
2019-03-29T10:44:19.104Z,11.20
2019-03-29T10:46:24.727Z,11.60
2019-03-29T10:48:30.426Z,11.90
2019-03-29T10:50:36.023Z,11.90
2019-03-29T10:52:41.546Z,11.80
2019-03-29T10:54:49.768Z,11.70
2019-03-29T10:56:54.306Z,11.60
2019-03-29T10:58:59.904Z,11.60
2019-03-29T11:01:05.795Z,11.50
2019-03-29T11:03:11.511Z,11.30
2019-03-29T11:05:20.164Z,11.30
2019-03-29T11:07:25.777Z,11.30
2019-03-29T11:09:31.418Z,11.20
2019-03-29T11:11:37.026Z,11.10
2019-03-29T11:13:42.721Z,11.50
2019-03-29T11:15:48.245Z,11.60
2019-03-29T11:17:53.773Z,11.40
2019-03-29T11:19:59.320Z,11.30
2019-03-29T11:22:04.926Z,11.40
2019-03-29T11:24:10.458Z,11.40
2019-03-29T11:26:16.008Z,11.40
2019-03-29T11:28:21.667Z,11.60
2019-03-29T11:30:41.159Z,11.50
2019-03-29T11:32:34.601Z,11.50
2019-03-29T11:34:40.144Z,11.60
2019-03-29T11:36:45.684Z,11.50
2019-03-29T11:38:51.221Z,11.50
2019-03-29T11:40:56.905Z,11.50
2019-03-29T11:43:02.449Z,11.50
2019-03-29T11:45:08.629Z,11.50
2019-03-29T11:47:14.165Z,11.60
2019-03-29T11:49:19.699Z,11.70
2019-03-29T11:51:25.255Z,11.60
2019-03-29T11:53:30.784Z,11.60
2019-03-29T11:55:36.386Z,11.60
2019-03-29T11:57:41.944Z,11.60
2019-03-29T11:59:47.609Z,11.70
2019-03-29T12:01:53.174Z,12.00
2019-03-29T12:03:58.716Z,12.30
2019-03-29T12:06:04.457Z,12.40
2019-03-29T12:08:10.215Z,12.50
2019-03-29T12:10:15.831Z,12.50
2019-03-29T12:12:21.432Z,12.40
2019-03-29T12:14:28.028Z,12.40
2019-03-29T12:16:33.637Z,12.20
2019-03-29T12:18:39.232Z,12.20
2019-03-29T12:20:44.914Z,12.50
2019-03-29T12:22:50.446Z,12.70
2019-03-29T12:24:55.979Z,12.60
2019-03-29T12:27:01.577Z,12.80
2019-03-29T12:29:07.130Z,12.80
2019-03-29T12:31:13.796Z,12.60
2019-03-29T12:33:19.549Z,12.70
2019-03-29T12:35:25.094Z,12.60
2019-03-29T12:37:30.620Z,12.20
2019-03-29T12:39:36.148Z,12.40
2019-03-29T12:41:43.372Z,12.70
2019-03-29T12:43:55.431Z,13.00
2019-03-29T12:45:56.033Z,13.10
2019-03-29T12:48:01.563Z,13.40
2019-03-29T12:50:08.085Z,13.60
2019-03-29T12:52:13.611Z,13.70
2019-03-29T12:54:20.294Z,13.90
2019-03-29T12:56:25.802Z,13.90
2019-03-29T12:58:31.329Z,13.70
2019-03-29T13:00:37.133Z,13.80
2019-03-29T13:02:42.714Z,13.30
2019-03-29T13:04:48.298Z,13.00
2019-03-29T13:06:53.836Z,13.10
2019-03-29T13:08:59.351Z,13.10
2019-03-29T13:11:04.957Z,13.20
2019-03-29T13:13:10.565Z,13.50
2019-03-29T13:15:16.073Z,13.40
2019-03-29T13:17:21.590Z,13.00
2019-03-29T13:19:27.504Z,12.90
2019-03-29T13:21:38.775Z,12.80
2019-03-29T13:23:43.129Z,12.80
2019-03-29T13:25:48.744Z,12.70
2019-03-29T13:27:58.968Z,12.60
2019-03-29T13:30:01.499Z,12.30
2019-03-29T13:32:07.376Z,12.30
2019-03-29T13:34:12.974Z,12.20
2019-03-29T13:36:18.676Z,12.00
2019-03-29T13:38:24.220Z,12.10
2019-03-29T13:40:29.848Z,12.50
2019-03-29T13:42:35.402Z,12.60
2019-03-29T13:44:40.965Z,12.70
2019-03-29T13:46:46.581Z,12.70
2019-03-29T13:48:52.122Z,12.80
2019-03-29T13:50:59.455Z,12.90
2019-03-29T13:53:05.825Z,12.50
2019-03-29T13:55:11.499Z,12.50
2019-03-29T13:57:17.040Z,12.50
2019-03-29T13:59:22.556Z,12.30
2019-03-29T14:01:28.097Z,12.10
2019-03-29T14:03:33.628Z,11.90
2019-03-29T14:05:39.167Z,12.00
2019-03-29T14:07:44.757Z,12.00
2019-03-29T14:09:50.292Z,12.00
2019-03-29T14:11:55.816Z,12.00
2019-03-29T14:14:01.343Z,12.00
2019-03-29T14:16:06.873Z,11.80
2019-03-29T14:18:12.475Z,11.70
2019-03-29T14:20:23.733Z,12.00
2019-03-29T14:22:29.274Z,11.80
2019-03-29T14:24:34.811Z,11.80
2019-03-29T14:26:40.368Z,11.60
2019-03-29T14:28:45.896Z,11.50
2019-03-29T14:30:51.421Z,11.50
2019-03-29T14:32:56.955Z,11.40
2019-03-29T14:35:02.542Z,11.30
2019-03-29T14:37:08.078Z,11.30
2019-03-29T14:39:13.613Z,11.40
2019-03-29T14:41:19.170Z,11.40
2019-03-29T14:43:24.698Z,11.40
2019-03-29T14:45:30.443Z,11.30
2019-03-29T14:47:43.197Z,11.20
2019-03-29T14:49:43.188Z,11.10
2019-03-29T14:51:48.708Z,11.20
2019-03-29T14:53:54.265Z,11.40
2019-03-29T14:55:59.861Z,11.40
2019-03-29T14:58:05.410Z,11.50
2019-03-29T15:00:12.668Z,11.40
2019-03-29T15:02:18.210Z,11.40
2019-03-29T15:04:23.754Z,11.50
2019-03-29T15:06:29.276Z,11.50
2019-03-29T15:08:34.803Z,11.50
2019-03-29T15:10:40.415Z,11.40
2019-03-29T15:12:45.956Z,11.20
2019-03-29T15:15:05.197Z,11.20
2019-03-29T15:16:58.627Z,11.30
2019-03-29T15:19:04.237Z,11.30
2019-03-29T15:21:10.551Z,11.40
2019-03-29T15:23:16.323Z,11.50
2019-03-29T15:25:21.932Z,11.50
2019-03-29T15:27:27.502Z,11.40
2019-03-29T15:29:33.018Z,11.30
2019-03-29T15:31:38.544Z,11.30
2019-03-29T15:33:44.076Z,11.40
2019-03-29T15:35:49.605Z,11.30
2019-03-29T15:37:55.138Z,11.40
2019-03-29T15:40:00.657Z,11.40
2019-03-29T15:42:06.261Z,11.30
2019-03-29T15:44:11.886Z,11.20
2019-03-29T15:46:17.416Z,11.20
2019-03-29T15:48:22.945Z,11.20
2019-03-29T15:50:28.629Z,11.20
2019-03-29T15:52:34.176Z,11.10
2019-03-29T15:54:39.723Z,11.10
2019-03-29T15:56:45.274Z,11.10
2019-03-29T15:58:50.814Z,11.00
2019-03-29T16:00:56.348Z,11.00
2019-03-29T16:03:01.957Z,11.00
2019-03-29T16:05:07.632Z,11.00
2019-03-29T16:07:13.245Z,10.90
2019-03-29T16:09:18.806Z,11.00
2019-03-29T16:11:24.413Z,11.00
2019-03-29T16:13:29.950Z,11.10
2019-03-29T16:15:38.343Z,11.00
2019-03-29T16:17:43.757Z,11.00
2019-03-29T16:19:49.292Z,11.00
2019-03-29T16:21:54.877Z,11.00
2019-03-29T16:24:00.412Z,10.90
2019-03-29T16:26:05.941Z,10.90
2019-03-29T16:28:11.486Z,10.80
2019-03-29T16:30:17.140Z,10.80
2019-03-29T16:32:22.689Z,10.60
2019-03-29T16:34:28.230Z,10.70
2019-03-29T16:36:33.832Z,10.60
2019-03-29T16:38:39.372Z,10.60
2019-03-29T16:40:44.902Z,10.50
2019-03-29T16:42:50.523Z,10.50
2019-03-29T16:44:56.133Z,10.40
2019-03-29T16:47:01.684Z,10.40
2019-03-29T16:49:07.204Z,10.30
2019-03-29T16:51:12.803Z,10.20
2019-03-29T16:53:18.441Z,10.20
2019-03-29T16:55:23.985Z,10.10
2019-03-29T16:57:29.580Z,10.10
2019-03-29T16:59:35.151Z,10.00
2019-03-29T17:01:40.696Z,10.00
2019-03-29T17:03:46.312Z,10.00
2019-03-29T17:05:51.876Z,9.90
2019-03-29T17:07:57.409Z,9.80
2019-03-29T17:10:03.989Z,9.90
2019-03-29T17:12:09.517Z,9.90
2019-03-29T17:14:15.031Z,9.90
2019-03-29T17:16:30.377Z,9.80
2019-03-29T17:18:29.522Z,9.70
2019-03-29T17:20:35.340Z,9.60
2019-03-29T17:22:43.206Z,9.60
2019-03-29T17:24:56.778Z,9.40
2019-03-29T17:26:55.353Z,9.40
2019-03-29T17:29:00.869Z,9.30
2019-03-29T17:31:08.077Z,9.30
2019-03-29T17:33:13.724Z,9.20
2019-03-29T17:35:19.240Z,9.10
2019-03-29T17:37:24.872Z,9.10
2019-03-29T17:39:30.422Z,9.00
2019-03-29T17:41:35.949Z,8.90
2019-03-29T17:43:41.567Z,8.90
2019-03-29T17:45:47.268Z,8.80
2019-03-29T17:47:52.808Z,8.70
2019-03-29T17:49:58.346Z,8.70
2019-03-29T17:52:03.940Z,8.60
2019-03-29T17:54:09.517Z,8.50
2019-03-29T17:56:15.036Z,8.50
2019-03-29T17:58:20.555Z,8.50
2019-03-29T18:00:27.835Z,8.40
2019-03-29T18:02:33.437Z,8.40
2019-03-29T18:04:38.968Z,8.30
2019-03-29T18:06:46.961Z,8.30
2019-03-29T18:08:51.668Z,8.30
2019-03-29T18:10:57.212Z,8.20
2019-03-29T18:13:02.822Z,8.20
2019-03-29T18:15:09.705Z,8.20
2019-03-29T18:17:15.227Z,8.10
2019-03-29T18:19:20.810Z,8.10
2019-03-29T18:21:26.348Z,8.10
2019-03-29T18:23:32.025Z,8.10
2019-03-29T18:25:37.653Z,8.10
2019-03-29T18:27:43.181Z,8.10
2019-03-29T18:29:48.714Z,8.10
2019-03-29T18:31:54.427Z,8.00
2019-03-29T18:34:00.368Z,7.90
2019-03-29T18:36:06.041Z,7.90
2019-03-29T18:38:11.747Z,7.90
2019-03-29T18:40:27.340Z,7.80
2019-03-29T18:42:32.869Z,7.80
2019-03-29T18:44:38.418Z,7.70
2019-03-29T18:46:45.105Z,7.70
2019-03-29T18:48:50.864Z,7.60
2019-03-29T18:50:56.454Z,7.60
2019-03-29T18:53:02.122Z,7.60
2019-03-29T18:55:07.728Z,7.60
2019-03-29T18:57:13.288Z,7.60
2019-03-29T18:59:18.823Z,7.60
2019-03-29T19:01:24.493Z,7.60
2019-03-29T19:03:30.104Z,7.60
2019-03-29T19:05:35.700Z,7.50
2019-03-29T19:07:41.238Z,7.50
2019-03-29T19:09:47.154Z,7.40
2019-03-29T19:11:52.881Z,7.40
2019-03-29T19:13:58.472Z,7.40
2019-03-29T19:16:04.150Z,7.50
2019-03-29T19:18:09.683Z,7.40
2019-03-29T19:20:26.759Z,7.30
2019-03-29T19:22:22.655Z,7.20
2019-03-29T19:24:28.128Z,7.20
2019-03-29T19:26:33.658Z,7.10
2019-03-29T19:28:39.186Z,7.00
2019-03-29T19:30:44.870Z,7.00
2019-03-29T19:32:51.486Z,7.00
2019-03-29T19:34:57.025Z,6.90
2019-03-29T19:37:02.634Z,6.80
2019-03-29T19:39:08.257Z,6.80
2019-03-29T19:41:13.896Z,6.80
2019-03-29T19:43:19.517Z,6.70
2019-03-29T19:45:25.118Z,6.70
2019-03-29T19:47:30.683Z,6.60
2019-03-29T19:49:36.221Z,6.60
2019-03-29T19:51:41.765Z,6.60
2019-03-29T19:53:47.349Z,6.60
2019-03-29T19:55:52.939Z,6.50
2019-03-29T19:57:58.497Z,6.40
2019-03-29T20:00:12.673Z,6.40
2019-03-29T20:02:18.345Z,6.40
2019-03-29T20:04:23.880Z,6.40
2019-03-29T20:06:29.561Z,6.40
2019-03-29T20:08:35.048Z,6.30
2019-03-29T20:10:40.645Z,6.20
2019-03-29T20:12:46.198Z,6.20
2019-03-29T20:14:51.728Z,6.30
2019-03-29T20:16:57.270Z,6.30
2019-03-29T20:19:02.811Z,6.20
2019-03-29T20:21:08.342Z,6.20
2019-03-29T20:23:15.015Z,6.20
2019-03-29T20:25:20.560Z,6.20
2019-03-29T20:27:26.092Z,6.20
2019-03-29T20:29:31.664Z,6.10
2019-03-29T20:31:37.308Z,6.10
2019-03-29T20:33:42.842Z,6.10
2019-03-29T20:35:48.393Z,6.10
2019-03-29T20:37:54.111Z,6.00
2019-03-29T20:39:59.634Z,6.00
2019-03-29T20:42:05.224Z,6.00
2019-03-29T20:44:10.781Z,5.90
2019-03-29T20:46:16.308Z,6.00
2019-03-29T20:48:21.849Z,6.00
2019-03-29T20:50:27.415Z,5.90
2019-03-29T20:52:32.953Z,5.90
2019-03-29T20:54:38.504Z,5.80
2019-03-29T20:56:44.077Z,5.80
2019-03-29T20:58:49.613Z,5.80
2019-03-29T21:00:55.136Z,5.80
2019-03-29T21:03:00.779Z,5.70
2019-03-29T21:05:07.070Z,5.70
2019-03-29T21:07:12.675Z,5.70
2019-03-29T21:09:18.224Z,5.60
2019-03-29T21:11:23.824Z,5.70
2019-03-29T21:13:29.430Z,5.60
2019-03-29T21:15:35.028Z,5.50
2019-03-29T21:17:40.637Z,5.60
2019-03-29T21:19:46.176Z,5.50
2019-03-29T21:21:51.716Z,5.50
2019-03-29T21:23:57.708Z,5.50
2019-03-29T21:26:03.240Z,5.50
2019-03-29T21:28:08.787Z,5.60
2019-03-29T21:30:14.852Z,5.50
2019-03-29T21:32:20.373Z,5.40
2019-03-29T21:34:26.016Z,5.40
2019-03-29T21:36:31.558Z,5.40
2019-03-29T21:38:37.168Z,5.30
2019-03-29T21:40:42.833Z,5.30
2019-03-29T21:42:48.479Z,5.20
2019-03-29T21:44:54.014Z,5.20
2019-03-29T21:46:59.654Z,5.30
2019-03-29T21:49:05.505Z,5.30
2019-03-29T21:51:11.074Z,5.20
2019-03-29T21:53:16.692Z,5.20
2019-03-29T21:55:22.302Z,5.10
2019-03-29T21:57:27.906Z,5.20
2019-03-29T21:59:33.584Z,5.10
2019-03-29T22:01:40.365Z,5.10
2019-03-29T22:03:45.986Z,5.00
2019-03-29T22:05:51.554Z,5.00
2019-03-29T22:07:57.115Z,5.00
2019-03-29T22:10:03.055Z,5.00
2019-03-29T22:12:08.610Z,4.90
2019-03-29T22:14:14.160Z,4.90
2019-03-29T22:16:19.732Z,4.80
2019-03-29T22:18:37.393Z,4.80
2019-03-29T22:20:32.600Z,4.80
2019-03-29T22:22:38.434Z,4.80
2019-03-29T22:24:44.956Z,4.80
2019-03-29T22:26:50.582Z,4.70
2019-03-29T22:28:56.154Z,4.70
2019-03-29T22:31:01.786Z,4.70
2019-03-29T22:33:07.468Z,4.60
2019-03-29T22:35:13.351Z,4.60
2019-03-29T22:37:18.982Z,4.60
2019-03-29T22:39:24.626Z,4.50
2019-03-29T22:41:30.201Z,4.50
2019-03-29T22:43:35.744Z,4.40
2019-03-29T22:45:41.357Z,4.40
2019-03-29T22:47:47.188Z,4.40
2019-03-29T22:49:52.778Z,4.40
2019-03-29T22:51:58.320Z,4.40
2019-03-29T22:54:04.016Z,4.30
2019-03-29T22:56:09.627Z,4.30
2019-03-29T22:58:15.165Z,4.30
2019-03-29T23:00:28.145Z,4.40
2019-03-29T23:02:35.275Z,4.40
2019-03-29T23:04:40.877Z,4.30
2019-03-29T23:06:46.433Z,4.30
2019-03-29T23:08:51.980Z,4.20
2019-03-29T23:10:57.528Z,4.20
2019-03-29T23:13:04.752Z,4.10
2019-03-29T23:15:11.246Z,4.10
2019-03-29T23:17:16.848Z,4.10
2019-03-29T23:19:22.415Z,4.00
2019-03-29T23:21:27.953Z,4.00
2019-03-29T23:23:33.513Z,4.00
2019-03-29T23:25:39.138Z,4.00
2019-03-29T23:27:44.778Z,4.10
2019-03-29T23:29:50.321Z,4.20
2019-03-29T23:31:56.038Z,4.50
2019-03-29T23:34:01.650Z,4.50
2019-03-29T23:36:07.268Z,4.40
2019-03-29T23:38:12.969Z,4.50
2019-03-29T23:40:18.583Z,4.60
2019-03-29T23:42:24.182Z,4.60
2019-03-29T23:44:29.806Z,4.50
2019-03-29T23:46:35.499Z,4.50
2019-03-29T23:48:41.106Z,4.40
2019-03-29T23:50:47.213Z,4.40
2019-03-29T23:52:52.935Z,4.40
2019-03-29T23:54:58.528Z,4.30
2019-03-29T23:57:04.194Z,4.40
2019-03-29T23:59:09.806Z,4.30
